sensor_id;sensor_type;location;lat;lon;timestamp;P1;durP1;ratioP1;P2;durP2;ratioP2
51578;SDS011;47998;53.242;6.386;2023-08-06T00:00:21;38.15;;;20.65;;
51578;SDS011;47998;53.242;6.386;2023-08-06T00:02:48;34.75;;;20.38;;
51578;SDS011;47998;53.242;6.386;2023-08-06T00:05:13;33.33;;;19.50;;
51578;SDS011;47998;53.242;6.386;2023-08-06T00:07:43;31.52;;;19.02;;
51578;SDS011;47998;53.242;6.386;2023-08-06T00:10:10;39.28;;;21.05;;
51578;SDS011;47998;53.242;6.386;2023-08-06T00:12:36;37.92;;;20.48;;
51578;SDS011;47998;53.242;6.386;2023-08-06T00:15:01;35.83;;;19.13;;
51578;SDS011;47998;53.242;6.386;2023-08-06T00:17:27;37.90;;;19.83;;
51578;SDS011;47998;53.242;6.386;2023-08-06T00:19:53;37.53;;;22.15;;
51578;SDS011;47998;53.242;6.386;2023-08-06T00:22:19;35.72;;;19.50;;
51578;SDS011;47998;53.242;6.386;2023-08-06T00:24:44;40.20;;;22.30;;
51578;SDS011;47998;53.242;6.386;2023-08-06T00:27:10;45.08;;;23.55;;
51578;SDS011;47998;53.242;6.386;2023-08-06T00:29:36;40.33;;;22.02;;
51578;SDS011;47998;53.242;6.386;2023-08-06T00:32:01;43.55;;;23.15;;
51578;SDS011;47998;53.242;6.386;2023-08-06T00:34:27;34.80;;;20.38;;
51578;SDS011;47998;53.242;6.386;2023-08-06T00:36:53;36.05;;;20.65;;
51578;SDS011;47998;53.242;6.386;2023-08-06T00:39:19;34.78;;;20.80;;
51578;SDS011;47998;53.242;6.386;2023-08-06T00:41:45;36.88;;;19.92;;
51578;SDS011;47998;53.242;6.386;2023-08-06T00:44:10;36.47;;;20.10;;
51578;SDS011;47998;53.242;6.386;2023-08-06T00:46:36;37.58;;;19.95;;
51578;SDS011;47998;53.242;6.386;2023-08-06T00:49:02;32.83;;;18.42;;
51578;SDS011;47998;53.242;6.386;2023-08-06T00:51:29;34.15;;;19.50;;
51578;SDS011;47998;53.242;6.386;2023-08-06T00:53:55;32.55;;;18.15;;
51578;SDS011;47998;53.242;6.386;2023-08-06T00:56:21;32.17;;;17.98;;
51578;SDS011;47998;53.242;6.386;2023-08-06T00:58:47;33.75;;;18.75;;
51578;SDS011;47998;53.242;6.386;2023-08-06T01:01:13;31.83;;;18.83;;
51578;SDS011;47998;53.242;6.386;2023-08-06T01:03:39;29.33;;;16.88;;
51578;SDS011;47998;53.242;6.386;2023-08-06T01:06:05;29.63;;;17.15;;
51578;SDS011;47998;53.242;6.386;2023-08-06T01:13:47;29.00;;;17.58;;
51578;SDS011;47998;53.242;6.386;2023-08-06T01:16:17;31.83;;;17.23;;
51578;SDS011;47998;53.242;6.386;2023-08-06T01:18:43;32.88;;;18.55;;
51578;SDS011;47998;53.242;6.386;2023-08-06T01:21:14;32.50;;;17.88;;
51578;SDS011;47998;53.242;6.386;2023-08-06T01:23:44;29.48;;;17.98;;
51578;SDS011;47998;53.242;6.386;2023-08-06T01:31:37;35.92;;;18.75;;
51578;SDS011;47998;53.242;6.386;2023-08-06T01:34:07;32.95;;;18.80;;
51578;SDS011;47998;53.242;6.386;2023-08-06T01:36:53;31.77;;;17.40;;
51578;SDS011;47998;53.242;6.386;2023-08-06T01:39:19;32.88;;;19.17;;
51578;SDS011;47998;53.242;6.386;2023-08-06T01:41:48;34.85;;;20.23;;
51578;SDS011;47998;53.242;6.386;2023-08-06T01:44:14;37.35;;;19.50;;
51578;SDS011;47998;53.242;6.386;2023-08-06T01:46:41;36.92;;;20.85;;
51578;SDS011;47998;53.242;6.386;2023-08-06T01:49:07;36.55;;;20.13;;
51578;SDS011;47998;53.242;6.386;2023-08-06T01:51:33;34.20;;;20.40;;
51578;SDS011;47998;53.242;6.386;2023-08-06T01:53:59;37.60;;;19.70;;
51578;SDS011;47998;53.242;6.386;2023-08-06T01:56:24;41.53;;;19.52;;
51578;SDS011;47998;53.242;6.386;2023-08-06T01:58:50;35.13;;;19.02;;
51578;SDS011;47998;53.242;6.386;2023-08-06T02:01:16;37.25;;;20.70;;
51578;SDS011;47998;53.242;6.386;2023-08-06T02:03:42;36.60;;;20.02;;
51578;SDS011;47998;53.242;6.386;2023-08-06T02:06:07;39.83;;;21.42;;
51578;SDS011;47998;53.242;6.386;2023-08-06T02:08:33;32.25;;;18.20;;
51578;SDS011;47998;53.242;6.386;2023-08-06T02:10:59;33.35;;;19.92;;
51578;SDS011;47998;53.242;6.386;2023-08-06T02:13:25;34.67;;;20.60;;
51578;SDS011;47998;53.242;6.386;2023-08-06T02:15:51;35.97;;;20.30;;
51578;SDS011;47998;53.242;6.386;2023-08-06T02:18:16;37.00;;;22.35;;
51578;SDS011;47998;53.242;6.386;2023-08-06T02:20:42;42.60;;;23.92;;
51578;SDS011;47998;53.242;6.386;2023-08-06T02:23:08;39.03;;;21.92;;
51578;SDS011;47998;53.242;6.386;2023-08-06T02:25:34;39.47;;;22.75;;
51578;SDS011;47998;53.242;6.386;2023-08-06T02:28:00;43.75;;;22.85;;
51578;SDS011;47998;53.242;6.386;2023-08-06T02:30:26;51.05;;;23.85;;
51578;SDS011;47998;53.242;6.386;2023-08-06T02:32:52;41.55;;;23.17;;
51578;SDS011;47998;53.242;6.386;2023-08-06T02:35:17;37.28;;;21.35;;
51578;SDS011;47998;53.242;6.386;2023-08-06T02:37:43;39.58;;;22.27;;
51578;SDS011;47998;53.242;6.386;2023-08-06T02:40:09;45.13;;;24.88;;
51578;SDS011;47998;53.242;6.386;2023-08-06T02:42:35;46.30;;;24.48;;
51578;SDS011;47998;53.242;6.386;2023-08-06T02:45:00;43.78;;;23.85;;
51578;SDS011;47998;53.242;6.386;2023-08-06T02:47:26;42.88;;;23.23;;
51578;SDS011;47998;53.242;6.386;2023-08-06T02:49:52;44.63;;;23.77;;
51578;SDS011;47998;53.242;6.386;2023-08-06T02:52:18;47.38;;;23.80;;
51578;SDS011;47998;53.242;6.386;2023-08-06T02:54:43;51.75;;;24.23;;
51578;SDS011;47998;53.242;6.386;2023-08-06T02:57:09;45.75;;;25.15;;
51578;SDS011;47998;53.242;6.386;2023-08-06T02:59:35;46.67;;;25.25;;
51578;SDS011;47998;53.242;6.386;2023-08-06T03:02:01;55.58;;;25.30;;
51578;SDS011;47998;53.242;6.386;2023-08-06T03:04:26;48.30;;;24.75;;
51578;SDS011;47998;53.242;6.386;2023-08-06T03:06:52;45.78;;;24.40;;
51578;SDS011;47998;53.242;6.386;2023-08-06T03:09:18;44.85;;;24.63;;
51578;SDS011;47998;53.242;6.386;2023-08-06T03:11:44;45.72;;;23.60;;
51578;SDS011;47998;53.242;6.386;2023-08-06T03:14:09;52.92;;;25.08;;
51578;SDS011;47998;53.242;6.386;2023-08-06T03:16:35;48.78;;;24.05;;
51578;SDS011;47998;53.242;6.386;2023-08-06T03:19:01;49.03;;;24.88;;
51578;SDS011;47998;53.242;6.386;2023-08-06T03:21:27;57.72;;;26.63;;
51578;SDS011;47998;53.242;6.386;2023-08-06T03:23:52;42.97;;;24.20;;
51578;SDS011;47998;53.242;6.386;2023-08-06T03:26:18;50.47;;;24.95;;
51578;SDS011;47998;53.242;6.386;2023-08-06T03:28:44;50.40;;;24.63;;
51578;SDS011;47998;53.242;6.386;2023-08-06T03:31:09;51.17;;;26.45;;
51578;SDS011;47998;53.242;6.386;2023-08-06T03:33:35;53.35;;;26.55;;
51578;SDS011;47998;53.242;6.386;2023-08-06T03:36:01;51.13;;;25.38;;
51578;SDS011;47998;53.242;6.386;2023-08-06T03:38:27;58.45;;;26.58;;
51578;SDS011;47998;53.242;6.386;2023-08-06T03:40:53;55.33;;;26.88;;
51578;SDS011;47998;53.242;6.386;2023-08-06T03:43:19;59.70;;;26.88;;
51578;SDS011;47998;53.242;6.386;2023-08-06T03:45:44;46.70;;;25.88;;
51578;SDS011;47998;53.242;6.386;2023-08-06T03:48:11;51.45;;;26.10;;
51578;SDS011;47998;53.242;6.386;2023-08-06T03:50:37;52.70;;;26.23;;
51578;SDS011;47998;53.242;6.386;2023-08-06T03:53:03;61.40;;;28.88;;
51578;SDS011;47998;53.242;6.386;2023-08-06T03:55:29;55.97;;;26.75;;
51578;SDS011;47998;53.242;6.386;2023-08-06T03:57:55;54.40;;;27.50;;
51578;SDS011;47998;53.242;6.386;2023-08-06T04:00:21;52.35;;;27.85;;
51578;SDS011;47998;53.242;6.386;2023-08-06T04:02:46;51.15;;;26.35;;
51578;SDS011;47998;53.242;6.386;2023-08-06T04:05:13;62.78;;;27.95;;
51578;SDS011;47998;53.242;6.386;2023-08-06T04:07:38;44.70;;;25.52;;
51578;SDS011;47998;53.242;6.386;2023-08-06T04:10:05;60.45;;;27.83;;
51578;SDS011;47998;53.242;6.386;2023-08-06T04:12:31;53.95;;;26.20;;
51578;SDS011;47998;53.242;6.386;2023-08-06T04:14:58;59.92;;;28.20;;
51578;SDS011;47998;53.242;6.386;2023-08-06T04:17:24;61.80;;;28.73;;
51578;SDS011;47998;53.242;6.386;2023-08-06T04:19:50;48.58;;;25.60;;
51578;SDS011;47998;53.242;6.386;2023-08-06T04:22:18;46.53;;;24.63;;
51578;SDS011;47998;53.242;6.386;2023-08-06T04:24:44;49.38;;;26.75;;
51578;SDS011;47998;53.242;6.386;2023-08-06T04:27:10;52.85;;;27.48;;
51578;SDS011;47998;53.242;6.386;2023-08-06T04:29:37;48.75;;;25.58;;
51578;SDS011;47998;53.242;6.386;2023-08-06T04:32:03;48.13;;;25.25;;
51578;SDS011;47998;53.242;6.386;2023-08-06T04:34:31;42.28;;;23.13;;
51578;SDS011;47998;53.242;6.386;2023-08-06T04:36:58;50.20;;;25.27;;
51578;SDS011;47998;53.242;6.386;2023-08-06T04:39:24;51.75;;;25.35;;
51578;SDS011;47998;53.242;6.386;2023-08-06T04:41:50;54.10;;;26.27;;
51578;SDS011;47998;53.242;6.386;2023-08-06T04:44:15;49.10;;;24.50;;
51578;SDS011;47998;53.242;6.386;2023-08-06T04:46:41;50.00;;;24.73;;
51578;SDS011;47998;53.242;6.386;2023-08-06T04:49:07;52.50;;;24.77;;
51578;SDS011;47998;53.242;6.386;2023-08-06T04:51:33;52.97;;;26.48;;
51578;SDS011;47998;53.242;6.386;2023-08-06T04:53:58;49.60;;;25.95;;
51578;SDS011;47998;53.242;6.386;2023-08-06T04:56:24;51.58;;;25.83;;
51578;SDS011;47998;53.242;6.386;2023-08-06T04:58:50;46.72;;;25.88;;
51578;SDS011;47998;53.242;6.386;2023-08-06T05:01:16;53.45;;;27.58;;
51578;SDS011;47998;53.242;6.386;2023-08-06T05:03:41;48.42;;;26.65;;
51578;SDS011;47998;53.242;6.386;2023-08-06T05:06:07;46.65;;;25.17;;
51578;SDS011;47998;53.242;6.386;2023-08-06T05:08:33;44.15;;;24.90;;
51578;SDS011;47998;53.242;6.386;2023-08-06T05:10:59;48.20;;;26.08;;
51578;SDS011;47998;53.242;6.386;2023-08-06T05:13:24;48.53;;;25.75;;
51578;SDS011;47998;53.242;6.386;2023-08-06T05:15:51;42.00;;;24.65;;
51578;SDS011;47998;53.242;6.386;2023-08-06T05:18:18;39.47;;;22.40;;
51578;SDS011;47998;53.242;6.386;2023-08-06T05:20:44;36.70;;;22.45;;
51578;SDS011;47998;53.242;6.386;2023-08-06T05:23:09;38.22;;;22.38;;
51578;SDS011;47998;53.242;6.386;2023-08-06T05:25:35;33.70;;;21.10;;
51578;SDS011;47998;53.242;6.386;2023-08-06T05:28:01;37.17;;;21.77;;
51578;SDS011;47998;53.242;6.386;2023-08-06T05:30:28;37.25;;;22.35;;
51578;SDS011;47998;53.242;6.386;2023-08-06T05:32:54;30.88;;;20.13;;
51578;SDS011;47998;53.242;6.386;2023-08-06T05:35:20;30.95;;;19.95;;
51578;SDS011;47998;53.242;6.386;2023-08-06T05:37:47;32.08;;;20.10;;
51578;SDS011;47998;53.242;6.386;2023-08-06T05:40:12;27.75;;;18.50;;
51578;SDS011;47998;53.242;6.386;2023-08-06T05:42:39;29.83;;;19.23;;
51578;SDS011;47998;53.242;6.386;2023-08-06T05:45:05;24.80;;;17.58;;
51578;SDS011;47998;53.242;6.386;2023-08-06T05:47:31;25.48;;;17.75;;
51578;SDS011;47998;53.242;6.386;2023-08-06T05:49:57;23.85;;;16.88;;
51578;SDS011;47998;53.242;6.386;2023-08-06T05:52:22;22.67;;;17.00;;
51578;SDS011;47998;53.242;6.386;2023-08-06T05:54:48;24.88;;;16.58;;
51578;SDS011;47998;53.242;6.386;2023-08-06T05:57:14;25.17;;;16.00;;
51578;SDS011;47998;53.242;6.386;2023-08-06T05:59:40;20.05;;;15.15;;
51578;SDS011;47998;53.242;6.386;2023-08-06T06:02:06;18.05;;;14.13;;
51578;SDS011;47998;53.242;6.386;2023-08-06T06:04:32;22.05;;;14.75;;
51578;SDS011;47998;53.242;6.386;2023-08-06T06:06:57;20.95;;;15.10;;
51578;SDS011;47998;53.242;6.386;2023-08-06T06:09:23;22.83;;;15.93;;
51578;SDS011;47998;53.242;6.386;2023-08-06T06:11:49;25.02;;;14.88;;
51578;SDS011;47998;53.242;6.386;2023-08-06T06:14:16;20.02;;;14.75;;
51578;SDS011;47998;53.242;6.386;2023-08-06T06:16:43;24.88;;;17.27;;
51578;SDS011;47998;53.242;6.386;2023-08-06T06:19:08;26.42;;;16.63;;
51578;SDS011;47998;53.242;6.386;2023-08-06T06:21:34;22.55;;;15.63;;
51578;SDS011;47998;53.242;6.386;2023-08-06T06:24:00;19.25;;;15.02;;
51578;SDS011;47998;53.242;6.386;2023-08-06T06:26:25;20.88;;;15.43;;
51578;SDS011;47998;53.242;6.386;2023-08-06T06:28:51;24.67;;;16.45;;
51578;SDS011;47998;53.242;6.386;2023-08-06T06:31:17;21.60;;;15.02;;
51578;SDS011;47998;53.242;6.386;2023-08-06T06:33:43;20.67;;;15.15;;
51578;SDS011;47998;53.242;6.386;2023-08-06T06:36:08;18.55;;;14.20;;
51578;SDS011;47998;53.242;6.386;2023-08-06T06:38:36;19.80;;;15.40;;
51578;SDS011;47998;53.242;6.386;2023-08-06T06:41:02;16.95;;;13.38;;
51578;SDS011;47998;53.242;6.386;2023-08-06T06:43:28;20.65;;;13.65;;
51578;SDS011;47998;53.242;6.386;2023-08-06T06:45:57;18.08;;;14.68;;
51578;SDS011;47998;53.242;6.386;2023-08-06T06:48:27;13.65;;;12.13;;
51578;SDS011;47998;53.242;6.386;2023-08-06T06:50:54;15.43;;;11.68;;
51578;SDS011;47998;53.242;6.386;2023-08-06T06:53:20;15.18;;;12.20;;
51578;SDS011;47998;53.242;6.386;2023-08-06T06:55:48;15.15;;;11.88;;
51578;SDS011;47998;53.242;6.386;2023-08-06T06:58:15;13.95;;;11.13;;
51578;SDS011;47998;53.242;6.386;2023-08-06T07:00:41;15.35;;;12.30;;
51578;SDS011;47998;53.242;6.386;2023-08-06T07:03:07;15.20;;;11.38;;
51578;SDS011;47998;53.242;6.386;2023-08-06T07:05:32;15.02;;;10.98;;
51578;SDS011;47998;53.242;6.386;2023-08-06T07:07:58;13.77;;;10.90;;
51578;SDS011;47998;53.242;6.386;2023-08-06T07:10:25;13.50;;;11.95;;
51578;SDS011;47998;53.242;6.386;2023-08-06T07:12:51;13.05;;;11.65;;
51578;SDS011;47998;53.242;6.386;2023-08-06T07:15:17;12.13;;;9.88;;
51578;SDS011;47998;53.242;6.386;2023-08-06T07:17:43;14.80;;;11.25;;
51578;SDS011;47998;53.242;6.386;2023-08-06T07:20:08;11.27;;;10.07;;
51578;SDS011;47998;53.242;6.386;2023-08-06T07:22:34;12.48;;;9.45;;
51578;SDS011;47998;53.242;6.386;2023-08-06T07:25:01;9.82;;;8.65;;
51578;SDS011;47998;53.242;6.386;2023-08-06T07:27:26;12.75;;;8.98;;
51578;SDS011;47998;53.242;6.386;2023-08-06T07:29:52;9.32;;;7.45;;
51578;SDS011;47998;53.242;6.386;2023-08-06T07:32:18;7.80;;;7.00;;
51578;SDS011;47998;53.242;6.386;2023-08-06T07:34:44;8.38;;;7.57;;
51578;SDS011;47998;53.242;6.386;2023-08-06T07:37:09;10.73;;;7.72;;
51578;SDS011;47998;53.242;6.386;2023-08-06T07:39:35;9.45;;;6.53;;
51578;SDS011;47998;53.242;6.386;2023-08-06T07:42:03;7.65;;;5.90;;
51578;SDS011;47998;53.242;6.386;2023-08-06T07:44:30;7.53;;;5.47;;
51578;SDS011;47998;53.242;6.386;2023-08-06T07:46:56;6.80;;;4.95;;
51578;SDS011;47998;53.242;6.386;2023-08-06T07:49:22;7.38;;;5.65;;
51578;SDS011;47998;53.242;6.386;2023-08-06T07:51:48;4.97;;;4.47;;
51578;SDS011;47998;53.242;6.386;2023-08-06T07:54:13;6.63;;;4.38;;
51578;SDS011;47998;53.242;6.386;2023-08-06T07:56:39;5.32;;;4.50;;
51578;SDS011;47998;53.242;6.386;2023-08-06T07:59:05;6.03;;;3.60;;
51578;SDS011;47998;53.242;6.386;2023-08-06T08:01:30;6.43;;;3.92;;
51578;SDS011;47998;53.242;6.386;2023-08-06T08:03:56;4.15;;;3.33;;
51578;SDS011;47998;53.242;6.386;2023-08-06T08:06:22;4.00;;;3.10;;
51578;SDS011;47998;53.242;6.386;2023-08-06T08:08:48;3.95;;;2.88;;
51578;SDS011;47998;53.242;6.386;2023-08-06T08:11:14;3.67;;;3.25;;
51578;SDS011;47998;53.242;6.386;2023-08-06T08:13:41;6.97;;;4.07;;
51578;SDS011;47998;53.242;6.386;2023-08-06T08:16:07;4.47;;;3.53;;
51578;SDS011;47998;53.242;6.386;2023-08-06T08:18:33;7.95;;;4.50;;
51578;SDS011;47998;53.242;6.386;2023-08-06T08:20:58;6.50;;;3.35;;
51578;SDS011;47998;53.242;6.386;2023-08-06T08:23:24;4.43;;;3.42;;
51578;SDS011;47998;53.242;6.386;2023-08-06T08:25:50;7.47;;;3.67;;
51578;SDS011;47998;53.242;6.386;2023-08-06T08:28:16;3.67;;;3.00;;
51578;SDS011;47998;53.242;6.386;2023-08-06T08:30:42;4.43;;;2.90;;
51578;SDS011;47998;53.242;6.386;2023-08-06T08:33:07;5.13;;;3.30;;
51578;SDS011;47998;53.242;6.386;2023-08-06T08:35:33;3.67;;;3.38;;
51578;SDS011;47998;53.242;6.386;2023-08-06T08:38:01;4.10;;;3.50;;
51578;SDS011;47998;53.242;6.386;2023-08-06T08:40:29;4.65;;;3.10;;
51578;SDS011;47998;53.242;6.386;2023-08-06T08:42:57;3.70;;;3.17;;
51578;SDS011;47998;53.242;6.386;2023-08-06T08:45:23;6.32;;;3.22;;
51578;SDS011;47998;53.242;6.386;2023-08-06T08:47:53;3.47;;;2.28;;
51578;SDS011;47998;53.242;6.386;2023-08-06T08:50:19;4.82;;;2.67;;
51578;SDS011;47998;53.242;6.386;2023-08-06T08:52:45;4.85;;;2.03;;
51578;SDS011;47998;53.242;6.386;2023-08-06T08:55:11;3.67;;;2.50;;
51578;SDS011;47998;53.242;6.386;2023-08-06T08:57:39;5.97;;;2.42;;
51578;SDS011;47998;53.242;6.386;2023-08-06T09:00:05;4.18;;;2.30;;
51578;SDS011;47998;53.242;6.386;2023-08-06T09:02:32;4.13;;;2.42;;
51578;SDS011;47998;53.242;6.386;2023-08-06T09:04:59;3.30;;;2.45;;
51578;SDS011;47998;53.242;6.386;2023-08-06T09:07:34;3.00;;;2.53;;
51578;SDS011;47998;53.242;6.386;2023-08-06T09:10:04;4.80;;;2.75;;
51578;SDS011;47998;53.242;6.386;2023-08-06T09:12:32;5.28;;;2.70;;
51578;SDS011;47998;53.242;6.386;2023-08-06T09:14:57;2.50;;;2.30;;
51578;SDS011;47998;53.242;6.386;2023-08-06T09:17:23;2.13;;;1.80;;
51578;SDS011;47998;53.242;6.386;2023-08-06T09:19:49;5.78;;;1.70;;
51578;SDS011;47998;53.242;6.386;2023-08-06T09:22:15;4.57;;;2.40;;
51578;SDS011;47998;53.242;6.386;2023-08-06T09:24:41;2.30;;;1.70;;
51578;SDS011;47998;53.242;6.386;2023-08-06T09:27:11;1.55;;;1.05;;
51578;SDS011;47998;53.242;6.386;2023-08-06T09:29:45;3.17;;;1.70;;
51578;SDS011;47998;53.242;6.386;2023-08-06T09:34:43;1.88;;;1.20;;
51578;SDS011;47998;53.242;6.386;2023-08-06T09:37:11;2.80;;;1.08;;
51578;SDS011;47998;53.242;6.386;2023-08-06T09:39:38;1.92;;;1.40;;
51578;SDS011;47998;53.242;6.386;2023-08-06T09:42:05;1.48;;;1.10;;
51578;SDS011;47998;53.242;6.386;2023-08-06T09:44:31;1.83;;;1.38;;
51578;SDS011;47998;53.242;6.386;2023-08-06T09:46:58;4.85;;;1.50;;
51578;SDS011;47998;53.242;6.386;2023-08-06T09:49:28;3.40;;;1.55;;
51578;SDS011;47998;53.242;6.386;2023-08-06T09:52:09;2.78;;;2.08;;
51578;SDS011;47998;53.242;6.386;2023-08-06T09:54:37;2.55;;;1.70;;
51578;SDS011;47998;53.242;6.386;2023-08-06T09:57:03;4.60;;;1.98;;
51578;SDS011;47998;53.242;6.386;2023-08-06T09:59:30;3.55;;;1.85;;
51578;SDS011;47998;53.242;6.386;2023-08-06T10:01:57;2.95;;;1.70;;
51578;SDS011;47998;53.242;6.386;2023-08-06T10:04:23;3.88;;;1.55;;
51578;SDS011;47998;53.242;6.386;2023-08-06T10:06:49;3.75;;;1.83;;
51578;SDS011;47998;53.242;6.386;2023-08-06T10:09:15;2.53;;;1.80;;
51578;SDS011;47998;53.242;6.386;2023-08-06T10:11:44;2.08;;;1.55;;
51578;SDS011;47998;53.242;6.386;2023-08-06T10:14:16;2.85;;;1.58;;
51578;SDS011;47998;53.242;6.386;2023-08-06T10:16:50;2.58;;;1.80;;
51578;SDS011;47998;53.242;6.386;2023-08-06T10:19:16;1.98;;;1.25;;
51578;SDS011;47998;53.242;6.386;2023-08-06T10:22:07;3.95;;;1.58;;
51578;SDS011;47998;53.242;6.386;2023-08-06T10:24:46;5.10;;;1.60;;
51578;SDS011;47998;53.242;6.386;2023-08-06T10:27:13;2.35;;;1.30;;
51578;SDS011;47998;53.242;6.386;2023-08-06T10:29:39;3.67;;;1.60;;
51578;SDS011;47998;53.242;6.386;2023-08-06T10:32:05;3.50;;;1.10;;
51578;SDS011;47998;53.242;6.386;2023-08-06T10:37:22;2.15;;;1.33;;
51578;SDS011;47998;53.242;6.386;2023-08-06T10:39:49;2.13;;;1.55;;
51578;SDS011;47998;53.242;6.386;2023-08-06T10:42:20;2.85;;;1.20;;
51578;SDS011;47998;53.242;6.386;2023-08-06T10:47:40;1.63;;;1.20;;
51578;SDS011;47998;53.242;6.386;2023-08-06T10:50:07;2.38;;;1.10;;
51578;SDS011;47998;53.242;6.386;2023-08-06T10:52:36;1.30;;;0.90;;
51578;SDS011;47998;53.242;6.386;2023-08-06T10:55:01;2.25;;;1.20;;
51578;SDS011;47998;53.242;6.386;2023-08-06T10:57:27;1.80;;;1.10;;
51578;SDS011;47998;53.242;6.386;2023-08-06T10:59:53;2.15;;;0.90;;
51578;SDS011;47998;53.242;6.386;2023-08-06T11:02:19;3.13;;;1.10;;
51578;SDS011;47998;53.242;6.386;2023-08-06T11:04:44;2.38;;;1.45;;
51578;SDS011;47998;53.242;6.386;2023-08-06T11:07:10;2.78;;;2.28;;
51578;SDS011;47998;53.242;6.386;2023-08-06T11:09:38;1.80;;;1.00;;
51578;SDS011;47998;53.242;6.386;2023-08-06T11:12:09;1.70;;;0.85;;
51578;SDS011;47998;53.242;6.386;2023-08-06T11:14:35;1.90;;;1.02;;
51578;SDS011;47998;53.242;6.386;2023-08-06T11:17:01;2.33;;;1.20;;
51578;SDS011;47998;53.242;6.386;2023-08-06T11:19:27;2.50;;;1.20;;
51578;SDS011;47998;53.242;6.386;2023-08-06T11:21:52;6.28;;;2.30;;
51578;SDS011;47998;53.242;6.386;2023-08-06T11:24:19;2.72;;;1.30;;
51578;SDS011;47998;53.242;6.386;2023-08-06T11:26:45;2.00;;;1.48;;
51578;SDS011;47998;53.242;6.386;2023-08-06T11:29:11;4.85;;;1.42;;
51578;SDS011;47998;53.242;6.386;2023-08-06T11:31:37;2.78;;;1.00;;
51578;SDS011;47998;53.242;6.386;2023-08-06T11:34:02;4.43;;;2.20;;
51578;SDS011;47998;53.242;6.386;2023-08-06T11:36:31;4.30;;;1.20;;
51578;SDS011;47998;53.242;6.386;2023-08-06T11:39:02;1.55;;;0.93;;
51578;SDS011;47998;53.242;6.386;2023-08-06T11:41:30;2.75;;;1.40;;
51578;SDS011;47998;53.242;6.386;2023-08-06T11:43:56;1.77;;;1.13;;
51578;SDS011;47998;53.242;6.386;2023-08-06T11:46:25;1.48;;;1.10;;
51578;SDS011;47998;53.242;6.386;2023-08-06T11:48:58;2.00;;;1.10;;
51578;SDS011;47998;53.242;6.386;2023-08-06T11:51:27;2.88;;;1.27;;
51578;SDS011;47998;53.242;6.386;2023-08-06T11:53:59;14.40;;;1.95;;
51578;SDS011;47998;53.242;6.386;2023-08-06T11:56:25;3.47;;;1.13;;
51578;SDS011;47998;53.242;6.386;2023-08-06T11:58:52;2.13;;;1.10;;
51578;SDS011;47998;53.242;6.386;2023-08-06T12:01:17;1.55;;;0.88;;
51578;SDS011;47998;53.242;6.386;2023-08-06T12:03:43;2.38;;;0.93;;
51578;SDS011;47998;53.242;6.386;2023-08-06T12:06:09;2.00;;;1.05;;
51578;SDS011;47998;53.242;6.386;2023-08-06T12:08:35;2.47;;;1.00;;
51578;SDS011;47998;53.242;6.386;2023-08-06T12:11:03;2.78;;;1.10;;
51578;SDS011;47998;53.242;6.386;2023-08-06T12:13:28;2.50;;;1.55;;
51578;SDS011;47998;53.242;6.386;2023-08-06T12:15:54;3.70;;;1.38;;
51578;SDS011;47998;53.242;6.386;2023-08-06T12:18:22;2.72;;;1.55;;
51578;SDS011;47998;53.242;6.386;2023-08-06T12:20:48;2.00;;;1.40;;
51578;SDS011;47998;53.242;6.386;2023-08-06T12:23:13;1.88;;;1.13;;
51578;SDS011;47998;53.242;6.386;2023-08-06T12:25:40;3.30;;;1.33;;
51578;SDS011;47998;53.242;6.386;2023-08-06T12:28:06;3.22;;;1.30;;
51578;SDS011;47998;53.242;6.386;2023-08-06T12:30:33;4.85;;;1.35;;
51578;SDS011;47998;53.242;6.386;2023-08-06T12:32:59;2.03;;;1.10;;
51578;SDS011;47998;53.242;6.386;2023-08-06T12:35:25;1.48;;;1.15;;
51578;SDS011;47998;53.242;6.386;2023-08-06T12:37:51;2.28;;;1.20;;
51578;SDS011;47998;53.242;6.386;2023-08-06T12:40:19;1.92;;;1.10;;
51578;SDS011;47998;53.242;6.386;2023-08-06T12:42:45;1.98;;;1.20;;
51578;SDS011;47998;53.242;6.386;2023-08-06T12:45:11;2.67;;;1.48;;
51578;SDS011;47998;53.242;6.386;2023-08-06T12:47:37;2.22;;;1.25;;
51578;SDS011;47998;53.242;6.386;2023-08-06T12:50:03;2.33;;;1.27;;
51578;SDS011;47998;53.242;6.386;2023-08-06T12:52:29;2.10;;;1.27;;
51578;SDS011;47998;53.242;6.386;2023-08-06T12:54:55;1.65;;;0.90;;
51578;SDS011;47998;53.242;6.386;2023-08-06T12:57:21;1.67;;;1.30;;
51578;SDS011;47998;53.242;6.386;2023-08-06T12:59:46;1.60;;;1.02;;
51578;SDS011;47998;53.242;6.386;2023-08-06T13:02:13;1.88;;;0.98;;
51578;SDS011;47998;53.242;6.386;2023-08-06T13:04:39;2.22;;;1.00;;
51578;SDS011;47998;53.242;6.386;2023-08-06T13:07:04;1.83;;;1.08;;
51578;SDS011;47998;53.242;6.386;2023-08-06T13:09:31;2.75;;;1.40;;
51578;SDS011;47998;53.242;6.386;2023-08-06T13:11:57;2.75;;;0.98;;
51578;SDS011;47998;53.242;6.386;2023-08-06T13:14:25;1.85;;;1.00;;
51578;SDS011;47998;53.242;6.386;2023-08-06T13:16:51;2.53;;;1.33;;
51578;SDS011;47998;53.242;6.386;2023-08-06T13:19:16;3.03;;;1.30;;
51578;SDS011;47998;53.242;6.386;2023-08-06T13:24:16;2.78;;;1.75;;
51578;SDS011;47998;53.242;6.386;2023-08-06T13:26:42;1.80;;;1.10;;
51578;SDS011;47998;53.242;6.386;2023-08-06T13:29:08;3.40;;;1.80;;
51578;SDS011;47998;53.242;6.386;2023-08-06T13:31:35;3.38;;;1.45;;
51578;SDS011;47998;53.242;6.386;2023-08-06T13:34:01;3.42;;;1.40;;
51578;SDS011;47998;53.242;6.386;2023-08-06T13:36:27;1.73;;;1.30;;
51578;SDS011;47998;53.242;6.386;2023-08-06T13:38:53;3.35;;;1.38;;
51578;SDS011;47998;53.242;6.386;2023-08-06T13:41:19;1.77;;;1.27;;
51578;SDS011;47998;53.242;6.386;2023-08-06T13:43:45;1.45;;;1.00;;
51578;SDS011;47998;53.242;6.386;2023-08-06T13:46:11;1.55;;;1.02;;
51578;SDS011;47998;53.242;6.386;2023-08-06T13:48:41;1.90;;;0.93;;
51578;SDS011;47998;53.242;6.386;2023-08-06T13:51:07;1.77;;;0.80;;
51578;SDS011;47998;53.242;6.386;2023-08-06T13:53:33;2.35;;;0.98;;
51578;SDS011;47998;53.242;6.386;2023-08-06T13:55:59;1.25;;;0.98;;
51578;SDS011;47998;53.242;6.386;2023-08-06T13:58:24;2.08;;;1.23;;
51578;SDS011;47998;53.242;6.386;2023-08-06T14:00:51;1.33;;;0.80;;
51578;SDS011;47998;53.242;6.386;2023-08-06T14:03:19;1.35;;;1.15;;
51578;SDS011;47998;53.242;6.386;2023-08-06T14:05:45;3.88;;;0.90;;
51578;SDS011;47998;53.242;6.386;2023-08-06T14:08:11;1.88;;;1.23;;
51578;SDS011;47998;53.242;6.386;2023-08-06T14:10:36;1.35;;;1.00;;
51578;SDS011;47998;53.242;6.386;2023-08-06T14:13:02;3.15;;;1.10;;
51578;SDS011;47998;53.242;6.386;2023-08-06T14:15:28;1.20;;;1.00;;
51578;SDS011;47998;53.242;6.386;2023-08-06T14:17:53;4.05;;;1.20;;
51578;SDS011;47998;53.242;6.386;2023-08-06T14:20:19;3.13;;;1.10;;
51578;SDS011;47998;53.242;6.386;2023-08-06T14:22:45;1.50;;;0.90;;
51578;SDS011;47998;53.242;6.386;2023-08-06T14:25:11;2.22;;;1.13;;
51578;SDS011;47998;53.242;6.386;2023-08-06T14:27:36;1.60;;;0.90;;
51578;SDS011;47998;53.242;6.386;2023-08-06T14:30:04;2.03;;;1.35;;
51578;SDS011;47998;53.242;6.386;2023-08-06T14:32:31;2.25;;;1.15;;
51578;SDS011;47998;53.242;6.386;2023-08-06T14:34:57;1.42;;;0.82;;
51578;SDS011;47998;53.242;6.386;2023-08-06T14:37:24;1.92;;;1.10;;
51578;SDS011;47998;53.242;6.386;2023-08-06T14:39:50;1.45;;;0.90;;
51578;SDS011;47998;53.242;6.386;2023-08-06T14:42:17;2.10;;;0.88;;
51578;SDS011;47998;53.242;6.386;2023-08-06T14:44:42;2.35;;;1.20;;
51578;SDS011;47998;53.242;6.386;2023-08-06T14:47:08;1.27;;;0.90;;
51578;SDS011;47998;53.242;6.386;2023-08-06T14:49:34;1.85;;;1.00;;